Nearby METAR Reports

 

YBBN - Brisbane Intl Ar, Australia
Distance from station: SE 37km
Updated: 27/10/2020 01:00
Mostly cloudy
Mostly cloudy
 Wind from S
Wind: S 9 km/h
Temperature: 21°C
Dew Point: 20°C
Humidity: 94%
Barometer: 1012 hPa
Clouds: Mostly cloudy
Visibility: 10 km
Cloud details: Few Clouds 457 m
Mostly cloudy 792 m
2020/10/26 15:00 YBBN 261500Z 19005KT 9999 FEW015 BKN026 21/20 Q1012
YAMB - Amberley, Australia
Distance from station: SSW 50km
Updated: 27/10/2020 01:00
Overcast
Overcast
 Wind from calm
Wind: Calm
Temperature: 21°C
Dew Point: 18°C
Humidity: 83%
Barometer: 1013 hPa
Clouds: Overcast
Visibility: 10 km
Cloud details: Overcast 579 m
2020/10/26 15:00 YAMB 261500Z AUTO 00000KT 9999 // OVC019 21/18 Q1013
 
YBOK - Oakey (army/Civ), Australia
Distance from station: WSW 112km
Updated: 27/10/2020 01:00
Clear
Clear
 Wind from ENE
Wind: ENE 6 km/h
Temperature: 14°C
Dew Point: 13°C
Humidity: 94%
Barometer: 1014 hPa
Clouds: Clear
Visibility: 10 km
2020/10/26 15:00 YBOK 261500Z AUTO 07003KT 9999 // NCD 14/13 Q1014
YKRY - Kingaroy Arpt, Australia
Distance from station: NW 121km
Updated: 27/10/2020 01:00
Clear
Clear
 Wind from SE
Wind: SE 7 km/h
Temperature: 18°C
Dew Point: 17°C
Humidity: 94%
Barometer: 1014 hPa
Clouds: Clear
Visibility: 10 km
2020/10/26 15:00 YKRY 261500Z AUTO 13004KT 090V150 9999 // NCD 18/17 Q1014
 
YBCG - Coolangatta Aws, Australia
Distance from station: SSE 127km
Updated: 27/10/2020 01:23
Partly cloudy
Partly cloudy
 Wind from S
Wind: S 11 km/h
Temperature: 19°C
Dew Point: 18°C
Humidity: 94%
Barometer: 1013 hPa
Clouds: Partly cloudy
Visibility: 10 km
Cloud details: Partly cloudy 2987 m
2020/10/26 15:23 YBCG 261523Z AUTO 17006KT 9999 // SCT098 19/18 Q1013
YLIS - Lismore Arpt, Australia
Distance from station: SSE 187km
Updated: 27/10/2020 01:00
Overcast
Overcast
 Wind from S
Wind: S 17 km/h
Temperature: 19°C
Dew Point: 16°C
Humidity: 83%
Barometer: 1014 hPa
Clouds: Overcast
Visibility: 10 km
Cloud details: Partly cloudy 701 m
Overcast 1036 m
Overcast 1219 m
2020/10/26 15:00 YLIS 261500Z AUTO 19009KT 9999 // SCT023 OVC034 OVC040 19/16 Q1014
 
YCAS - Casino Airport, Australia
Distance from station: S 189km
Updated: 27/10/2020 01:00

 Wind from SSE
Wind: SSE 9 km/h
Temperature: 19°C
Dew Point: 16°C
Humidity: 83%
Barometer: 1014 hPa
2020/10/26 15:00 YCAS 261500Z AUTO 15005KT //// // ////// 19/16 Q1014
YBNA - Ballina Byron G., Australia
Distance from station: SSE 196km
Updated: 27/10/2020 01:00
Overcast
Overcast
 Wind from S
Wind: S 24 km/h
Temperature: 20°C
Dew Point: 17°C
Humidity: 83%
Barometer: 1014 hPa
Clouds: Overcast
Visibility: 10 km
Cloud details: Partly cloudy 488 m
Overcast 732 m
2020/10/26 15:00 YBNA 261500Z AUTO 18013KT 9999 // SCT016 OVC024 20/17 Q1014
 
YBUD - Bundaberg, Australia
Distance from station: NNW 260km
Updated: 27/10/2020 01:10
Mostly cloudy
Mostly cloudy
 Wind from NNW
Wind: NNW 15 km/h
Temperature: 24°C
Dew Point: 23°C
Humidity: 94%
Barometer: 1011 hPa
Clouds: Mostly cloudy
Visibility: 10 km
Cloud details: Partly cloudy 213 m
Mostly cloudy 366 m
Mostly cloudy 2835 m
2020/10/26 15:10 YBUD 261510Z AUTO 34008KT 9999 // SCT007 BKN012 BKN093 24/23 Q1011
YGFN - Grafton Arpt, Australia
Distance from station: S 287km
Updated: 27/10/2020 01:00
Overcast
Overcast
 Wind from SSW
Wind: SSW 6 km/h
Temperature: 18°C
Dew Point: 12°C
Humidity: 68%
Barometer: 1014 hPa
Clouds: Overcast
Visibility: 10 km
Cloud details: Mostly cloudy 1494 m
Overcast 1768 m
2020/10/26 15:00 YGFN 261500Z AUTO 21003KT 9999 // BKN049 OVC058 18/12 Q1014